Phoenix, Arizona
Traffic Map
Current Weather Conditions
Phoenix, Arizona
Few Clouds
Few Clouds
42°
Feels Like: 42°
Wind Chill: 42° Ceiling: Unl
Heat Index: 42° Visibility: 10mi
Dew Point: 12° Wind: 14mph
Humidity: 17% Direction: 230° (SW)
Pressure: 29.75in Gusts: 0mph
Raw Report DataKPHX 022151Z 23012KT 10SM FEW100 42/12 A2975 RMK AO2 SLP053 T04170122
Traffic Incident Summary
Active as of:
Severity:
Category:
InformationThere was an issue retrieving the traffic information for this location. Please try a different location or try again shortly.
Advertisements
Track Severe Weather on mobile